Time;durP1;ratioP1;P1;durP2;ratioP2;P2;SDS_P1;SDS_P2;PMS_P1;PMS_P2;Temp;Humidity;BMP_temperature;BMP_pressure;BME280_temperature;BME280_humidity;BME280_pressure;Samples;Min_cycle;Max_cycle;Signal;HPM_P1;HPM_P2
2023/01/28 00:04:36;;;;;;;64.80;33.25;;;;;;;;;;5109475;23;20059;-95
2023/01/28 00:07:02;;;;;;;66.22;34.22;;;;;;;;;;4939577;29;20066;-95
2023/01/28 00:09:30;;;;;;;58.70;30.30;;;;;;;;;;4974399;29;20042;-96
2023/01/28 16:54:23;;;;;;;61.95;32.97;;;;;;;;;;4901800;29;20505;-95
2023/01/28 16:56:52;;;;;;;59.97;30.83;;;;;;;;;;4898208;29;20025;-93
2023/01/28 16:59:18;;;;;;;72.05;35.22;;;;;;;;;;4898669;29;20040;-94
2023/01/28 17:01:44;;;;;;;77.82;38.47;;;;;;;;;;4903272;29;20053;-93
2023/01/28 17:04:10;;;;;;;73.40;37.55;;;;;;;;;;4900648;29;20080;-92
2023/01/28 17:12:46;;;;;;;73.10;36.53;;;;;;;;;;4890175;29;20124;-94
2023/01/28 17:15:12;;;;;;;76.18;39.60;;;;;;;;;;4903644;29;20096;-94
2023/01/28 17:17:39;;;;;;;75.30;38.47;;;;;;;;;;4898055;29;20026;-94
2023/01/28 17:20:05;;;;;;;65.00;35.55;;;;;;;;;;4902688;29;20028;-93
2023/01/28 17:22:31;;;;;;;67.70;36.05;;;;;;;;;;4887495;29;20040;-93
2023/01/28 17:24:57;;;;;;;68.50;38.17;;;;;;;;;;4916718;29;20037;-93
2023/01/28 17:27:24;;;;;;;58.92;31.75;;;;;;;;;;4873752;29;20033;-93
2023/01/28 17:29:51;;;;;;;81.53;40.97;;;;;;;;;;4899070;29;20033;-92
2023/01/28 17:32:18;;;;;;;96.18;46.45;;;;;;;;;;4877132;29;20025;-91
2023/01/28 17:34:46;;;;;;;99.65;48.70;;;;;;;;;;4877289;29;20036;-91
2023/01/28 17:37:12;;;;;;;99.22;48.15;;;;;;;;;;4886462;29;20420;-93
2023/01/28 17:39:38;;;;;;;101.70;49.10;;;;;;;;;;4902841;29;20116;-93
2023/01/28 17:42:05;;;;;;;84.38;44.33;;;;;;;;;;4892851;29;20073;-91
2023/01/28 17:44:31;;;;;;;95.60;47.83;;;;;;;;;;4889185;29;20029;-92
2023/01/28 17:47:00;;;;;;;92.03;46.90;;;;;;;;;;4885141;29;20341;-94
2023/01/28 17:49:26;;;;;;;88.97;45.20;;;;;;;;;;4895709;29;20037;-93
2023/01/28 17:54:46;;;;;;;78.18;40.03;;;;;;;;;;4966616;23;20066;-91
2023/01/28 17:57:13;;;;;;;82.88;41.80;;;;;;;;;;4926263;29;20039;-91
2023/01/28 17:59:39;;;;;;;82.18;41.22;;;;;;;;;;4921862;29;20020;-92
2023/01/28 18:02:05;;;;;;;85.35;46.10;;;;;;;;;;4917114;29;20452;-91
2023/01/28 18:04:37;;;;;;;118.90;62.75;;;;;;;;;;4941438;29;20020;-92
2023/01/28 18:07:09;;;;;;;117.93;60.78;;;;;;;;;;4921707;29;20040;-94
2023/01/28 18:09:37;;;;;;;82.43;45.65;;;;;;;;;;4921733;29;20033;-93
2023/01/28 18:12:03;;;;;;;77.50;42.50;;;;;;;;;;4921631;29;20047;-93
2023/01/28 18:14:29;;;;;;;71.68;39.22;;;;;;;;;;4909253;29;20119;-89
2023/01/28 18:16:55;;;;;;;72.30;39.50;;;;;;;;;;4931859;29;20024;-93
2023/01/28 18:19:21;;;;;;;70.45;38.08;;;;;;;;;;4936642;29;20024;-93
2023/01/28 18:24:51;;;;;;;67.28;35.80;;;;;;;;;;4924209;29;20055;-93
2023/01/28 18:30:05;;;;;;;77.63;38.97;;;;;;;;;;4922289;29;20051;-93
2023/01/28 18:32:31;;;;;;;66.97;34.40;;;;;;;;;;4914740;29;20031;-92
2023/01/28 18:34:57;;;;;;;67.88;36.47;;;;;;;;;;4919194;29;20067;-92
2023/01/28 18:40:30;;;;;;;67.10;35.00;;;;;;;;;;4971457;23;20075;-93
2023/01/28 18:42:56;;;;;;;69.95;35.70;;;;;;;;;;4942092;29;20125;-90
2023/01/28 18:45:22;;;;;;;76.88;39.97;;;;;;;;;;4956673;29;20031;-91
2023/01/28 18:47:48;;;;;;;79.25;40.55;;;;;;;;;;4959168;28;20411;-94
2023/01/28 18:50:15;;;;;;;70.30;35.75;;;;;;;;;;4959021;28;20047;-92
2023/01/28 18:52:59;;;;;;;70.30;37.20;;;;;;;;;;4942355;29;20505;-92
2023/01/28 18:55:25;;;;;;;67.35;35.53;;;;;;;;;;4941769;29;20031;-91
2023/01/28 18:57:51;;;;;;;71.88;37.13;;;;;;;;;;4942387;29;20031;-91
2023/01/28 19:00:18;;;;;;;68.30;35.22;;;;;;;;;;4934885;29;20039;-92
2023/01/28 19:02:44;;;;;;;71.75;36.88;;;;;;;;;;4972618;28;20099;-92
2023/01/28 19:05:11;;;;;;;65.00;36.58;;;;;;;;;;4958930;29;20417;-91
2023/01/28 19:11:05;;;;;;;65.43;35.90;;;;;;;;;;4955875;29;20106;-93
2023/01/28 19:13:31;;;;;;;67.10;34.88;;;;;;;;;;4956640;29;20330;-92
2023/01/28 19:16:00;;;;;;;69.43;35.28;;;;;;;;;;4959170;29;20065;-93
2023/01/28 19:18:26;;;;;;;65.97;35.50;;;;;;;;;;4942052;28;20028;-93
2023/01/28 19:20:53;;;;;;;63.22;34.50;;;;;;;;;;4959378;29;20034;-91
2023/01/28 19:23:19;;;;;;;63.55;34.38;;;;;;;;;;4958410;29;20066;-91
2023/01/28 19:25:45;;;;;;;62.45;34.05;;;;;;;;;;4959030;29;20038;-92
2023/01/28 19:28:11;;;;;;;64.72;33.72;;;;;;;;;;4958799;29;20058;-93
2023/01/28 19:30:37;;;;;;;64.75;33.72;;;;;;;;;;4959083;29;20035;-90
2023/01/28 19:33:05;;;;;;;77.70;39.67;;;;;;;;;;4941848;29;20035;-93
2023/01/28 19:35:33;;;;;;;81.82;39.65;;;;;;;;;;4959356;29;20030;-92
2023/01/28 19:37:59;;;;;;;73.32;36.47;;;;;;;;;;4942033;29;20023;-92
2023/01/28 19:40:25;;;;;;;70.57;37.97;;;;;;;;;;4958769;29;20047;-92
2023/01/28 19:42:53;;;;;;;77.75;40.53;;;;;;;;;;4941142;29;20031;-91
2023/01/28 19:45:19;;;;;;;90.05;47.22;;;;;;;;;;4959198;29;20028;-92
2023/01/28 19:47:45;;;;;;;85.22;42.60;;;;;;;;;;4954483;29;20027;-92
2023/01/28 19:50:12;;;;;;;83.75;43.03;;;;;;;;;;4940117;29;20039;-93
2023/01/28 19:55:42;;;;;;;82.25;42.65;;;;;;;;;;4958628;29;20026;-91
2023/01/28 19:58:09;;;;;;;97.20;49.53;;;;;;;;;;4941667;28;20031;-90
2023/01/28 20:00:35;;;;;;;91.18;48.50;;;;;;;;;;4960225;28;20024;-91
2023/01/28 20:03:05;;;;;;;89.68;45.30;;;;;;;;;;4945027;29;20175;-92
2023/01/28 20:05:31;;;;;;;84.70;39.92;;;;;;;;;;4945385;28;20117;-91
2023/01/28 20:07:57;;;;;;;91.65;49.45;;;;;;;;;;4960134;29;20031;-90
2023/01/28 20:10:26;;;;;;;88.65;48.13;;;;;;;;;;4956097;29;20023;-91
2023/01/28 20:12:52;;;;;;;82.78;43.33;;;;;;;;;;4944407;29;20043;-91
2023/01/28 20:15:18;;;;;;;84.78;43.75;;;;;;;;;;4961932;29;20024;-91
2023/01/28 20:17:44;;;;;;;82.95;42.38;;;;;;;;;;4962280;29;20051;-91
2023/01/28 20:20:10;;;;;;;85.13;44.90;;;;;;;;;;4961601;29;20052;-92
2023/01/28 20:25:41;;;;;;;88.28;43.75;;;;;;;;;;4959244;28;20028;-93
2023/01/28 20:28:09;;;;;;;80.63;39.90;;;;;;;;;;4953481;29;20027;-92
2023/01/28 20:30:35;;;;;;;85.28;42.67;;;;;;;;;;4962307;29;20051;-94
2023/01/28 20:33:01;;;;;;;78.13;38.55;;;;;;;;;;4944593;29;20028;-92
2023/01/28 20:35:28;;;;;;;81.57;38.70;;;;;;;;;;4944991;28;20074;-92
2023/01/28 20:37:54;;;;;;;76.40;38.10;;;;;;;;;;4961968;29;20098;-91
2023/01/28 20:40:20;;;;;;;79.75;39.72;;;;;;;;;;4944490;29;20058;-91
2023/01/28 20:42:46;;;;;;;75.13;38.45;;;;;;;;;;4960545;29;20027;-90
2023/01/28 20:45:12;;;;;;;74.80;37.85;;;;;;;;;;4960906;23;20055;-91
2023/01/28 20:47:38;;;;;;;73.32;38.13;;;;;;;;;;4926215;29;20146;-95
2023/01/28 20:50:04;;;;;;;77.78;39.30;;;;;;;;;;4941117;29;20035;-90
2023/01/28 20:52:50;;;;;;;74.30;38.03;;;;;;;;;;4942248;29;20028;-94
2023/01/28 20:55:21;;;;;;;78.97;39.75;;;;;;;;;;4939158;29;20118;-93
2023/01/28 20:57:47;;;;;;;79.25;40.65;;;;;;;;;;4924747;29;20422;-92
2023/01/28 21:00:13;;;;;;;79.65;41.58;;;;;;;;;;4941742;29;20034;-89
2023/01/28 21:02:42;;;;;;;83.53;40.85;;;;;;;;;;4942456;29;20051;-90
2023/01/28 21:05:08;;;;;;;73.78;40.80;;;;;;;;;;4941783;29;20038;-90
2023/01/28 21:07:34;;;;;;;80.05;43.70;;;;;;;;;;4941980;29;20035;-90
2023/01/28 21:10:00;;;;;;;82.38;41.47;;;;;;;;;;4923834;29;20039;-90
2023/01/28 21:12:29;;;;;;;82.50;40.53;;;;;;;;;;4930242;29;20054;-90
2023/01/28 21:14:55;;;;;;;77.47;39.40;;;;;;;;;;4924316;29;20123;-91
2023/01/28 21:17:21;;;;;;;74.93;38.17;;;;;;;;;;4941661;29;20036;-90
2023/01/28 21:19:47;;;;;;;69.53;37.60;;;;;;;;;;4941211;29;20028;-89
2023/01/28 21:22:13;;;;;;;75.38;38.15;;;;;;;;;;4925105;29;20026;-90
2023/01/28 21:24:42;;;;;;;67.35;35.33;;;;;;;;;;4941280;29;20031;-89
2023/01/28 21:27:08;;;;;;;71.40;37.38;;;;;;;;;;4924784;29;20047;-88
2023/01/28 21:29:34;;;;;;;73.55;37.92;;;;;;;;;;4924801;29;20067;-90
2023/01/28 21:32:01;;;;;;;70.68;35.10;;;;;;;;;;4929319;29;20035;-89
2023/01/28 21:34:27;;;;;;;68.63;35.72;;;;;;;;;;4922416;29;20039;-91
2023/01/28 21:36:59;;;;;;;69.40;36.47;;;;;;;;;;4924367;29;20028;-90
2023/01/28 21:39:25;;;;;;;66.93;35.87;;;;;;;;;;4939539;29;20028;-92
2023/01/28 21:41:51;;;;;;;69.75;36.25;;;;;;;;;;4924133;29;20440;-90
2023/01/28 21:44:17;;;;;;;66.93;34.75;;;;;;;;;;4924110;29;20039;-90
2023/01/28 21:46:45;;;;;;;74.95;36.88;;;;;;;;;;4941038;29;20058;-89
2023/01/28 21:49:11;;;;;;;70.78;37.38;;;;;;;;;;4941280;29;20024;-93
2023/01/28 21:57:39;;;;;;;70.30;35.72;;;;;;;;;;4941150;29;20130;-90
2023/01/28 22:00:07;;;;;;;70.15;35.80;;;;;;;;;;4924488;29;20119;-92
2023/01/28 22:02:35;;;;;;;66.80;34.30;;;;;;;;;;4923817;29;20031;-91
2023/01/28 22:07:46;;;;;;;71.05;35.55;;;;;;;;;;4941498;29;20055;-90
2023/01/28 22:10:12;;;;;;;69.22;36.08;;;;;;;;;;4923775;29;20064;-90
2023/01/28 22:12:38;;;;;;;74.07;36.03;;;;;;;;;;4923885;29;20027;-90
2023/01/28 22:15:05;;;;;;;72.50;35.20;;;;;;;;;;4912124;29;20046;-92
2023/01/28 22:17:31;;;;;;;69.18;34.92;;;;;;;;;;4919881;29;20067;-90
2023/01/28 22:20:00;;;;;;;68.18;35.45;;;;;;;;;;4924052;29;20047;-91
2023/01/28 22:25:25;;;;;;;74.88;39.38;;;;;;;;;;5005497;23;20086;-92
2023/01/28 22:27:51;;;;;;;73.95;38.72;;;;;;;;;;4922304;28;20035;-92
2023/01/28 22:30:17;;;;;;;67.55;33.72;;;;;;;;;;4937665;29;20024;-91
2023/01/28 22:32:43;;;;;;;69.03;36.08;;;;;;;;;;4930035;29;20042;-90
2023/01/28 22:35:10;;;;;;;69.80;37.50;;;;;;;;;;4957270;28;20034;-92
2023/01/28 22:43:43;;;;;;;69.85;35.80;;;;;;;;;;4941424;29;20047;-91
2023/01/28 22:48:58;;;;;;;73.85;36.58;;;;;;;;;;5001262;23;20090;-91
2023/01/28 22:51:25;;;;;;;81.22;36.67;;;;;;;;;;4959233;29;20023;-91
2023/01/28 23:08:23;;;;;;;84.75;38.10;;;;;;;;;;4991609;23;20078;-93
2023/01/28 23:10:51;;;;;;;78.18;36.83;;;;;;;;;;4954982;29;20019;-91
2023/01/28 23:13:18;;;;;;;88.95;40.83;;;;;;;;;;4948874;29;20287;-93
2023/01/28 23:27:13;;;;;;;125.60;56.03;;;;;;;;;;4940542;29;20051;-91
2023/01/28 23:29:40;;;;;;;116.32;56.10;;;;;;;;;;4940684;29;20027;-92
2023/01/28 23:32:08;;;;;;;78.10;40.83;;;;;;;;;;4940328;29;20032;-92
2023/01/28 23:34:35;;;;;;;73.32;35.35;;;;;;;;;;4922823;29;20040;-91
2023/01/28 23:37:02;;;;;;;75.28;35.75;;;;;;;;;;4926409;29;20032;-92
2023/01/28 23:42:32;;;;;;;88.00;37.60;;;;;;;;;;4944135;29;20091;-93
2023/01/28 23:44:59;;;;;;;72.50;35.50;;;;;;;;;;4927163;29;20051;-90
2023/01/28 23:47:25;;;;;;;76.80;36.85;;;;;;;;;;4944121;29;20024;-90
2023/01/28 23:49:51;;;;;;;68.40;34.05;;;;;;;;;;4943832;29;20107;-91
2023/01/28 23:52:18;;;;;;;75.05;35.53;;;;;;;;;;4927101;29;20035;-90
